Portland, ME

12:15 AM EST on January 19, 2017 (GMT -0500)
Munjoy Hill | | Change Station
Active Advisory: Small Craft Advisory

Elev 151 ft 43.67 °N, 70.25 °W | Updated 26 seconds ago

Overcast
Overcast
25.0 °F
Feels Like 25 °F
N
0.0
Wind Variable Wind from ESE

Today
High -- | Low -- °F
--% Chance of Precip.
Yesterday
High -- | Low -- °F
Precip. -- in
Pressure 30.04 in
Visibility 3.0 miles
Clouds Overcast 1500 ft
Windchill 25 °F
Dew Point 23 °F
Humidity 93%
Rainfall 0.00 in
Snow Depth Not available.
7:08 AM 4:35 PM
Waning Gibbous, 57% visible
METAR KPWM 190451Z 33006KT 3SM BR OVC015 M04/M06 A3004 RMK AO2 SNB0353E46 SLP173 P0000 T10391056 400061039
Pressure 30.04 in
Visibility 3.0 miles
Clouds Overcast 1500 ft
Windchill 25 °F
Dew Point 23 °F
Humidity 93%
Rainfall 0.00 in
Snow Depth Not available.
7:08 AM 4:35 PM
Waning Gibbous, 57% visible
METAR KPWM 190451Z 33006KT 3SM BR OVC015 M04/M06 A3004 RMK AO2 SNB0353E46 SLP173 P0000 T10391056 400061039

Get Your Daily Forecast Email!

Thanks for signing up!

Be on the lookout for a verification email in your inbox.

You'll start receiving the daily forecast at 8 AM.

×

10-Day Weather Forecast

Almanac

Astronomy

Jan. 19, 2017 Rise Set
Actual Time
Civil Twilight
Nautical Twilight
Astronomical Twilight
Moon
Length of Visible Light
Length of Day
Tomorrow will be .
, % of the Moon is Illuminated

Today's Extremes

State Highs State Lows

Community

WunderPhotos

Upload Photos

1,962,540 photos uploaded!

WunderBlog® & News

Nearby

Air Quality

  Air Quality AQ Index Pollutant
Not available.

Snow Depth

Station Depth Elevation

Earthquake Activity

City Distance Mag. Time & Date
Minimum magnitude displayed is 2.5.

Coastal Water Temperatures

Place Temperature

Stations

Nearby Weather Stations

Station Location Temp. Windchill Dew Point Humidity Wind Precip. Elev Updated Type
                   

Watches & Warnings

Small Craft Advisory
Issued: 2:50 PM EST Jan. 18, 2017 – National Weather Service

... Small Craft Advisory now in effect until 4 am EST Thursday...

* winds... northeast 5 to 15 kt with gusts up to 25 kt.

* Seas... 4 to 7 feet.

Precautionary/preparedness actions...

A Small Craft Advisory means that wind speeds of 25 to 33 knots
are expected to produce hazardous wave conditions to small craft.
Inexperienced mariners... especially those operating smaller
vessels should avoid navigating in these conditions.